Time;durP1;ratioP1;P1;durP2;ratioP2;P2;SDS_P1;SDS_P2;PMS_P1;PMS_P2;Temp;Humidity;BMP_temperature;BMP_pressure;BME280_temperature;BME280_humidity;BME280_pressure;Samples;Min_cycle;Max_cycle;Signal;HPM_P1;HPM_P2
2021/10/09 00:01:10;;;;;;;21.00;19.10;;;;;;;;;;5127590;27;24544;-59
2021/10/09 00:03:35;;;;;;;18.95;17.35;;;;;;;;;;5127917;27;24417;-59
2021/10/09 00:06:00;;;;;;;20.87;18.93;;;;;;;;;;5125243;27;24435;-59
2021/10/09 00:08:26;;;;;;;22.50;20.40;;;;;;;;;;5121067;27;24401;-59
2021/10/09 00:10:51;;;;;;;21.50;19.70;;;;;;;;;;5127217;27;24397;-59
2021/10/09 00:13:16;;;;;;;22.00;19.90;;;;;;;;;;5127902;27;24528;-59
2021/10/09 00:15:41;;;;;;;21.42;19.42;;;;;;;;;;5128151;27;24428;-59
2021/10/09 00:18:06;;;;;;;22.33;20.33;;;;;;;;;;5126091;27;24882;-59
2021/10/09 00:20:32;;;;;;;19.77;18.17;;;;;;;;;;5127984;27;24429;-59
2021/10/09 00:22:57;;;;;;;21.50;19.70;;;;;;;;;;5121668;27;24450;-59
2021/10/09 00:25:23;;;;;;;19.43;17.93;;;;;;;;;;5127195;27;24848;-59
2021/10/09 00:27:48;;;;;;;20.55;18.85;;;;;;;;;;5123685;27;24441;-59
2021/10/09 00:30:13;;;;;;;19.40;17.90;;;;;;;;;;5126103;27;24477;-59
2021/10/09 00:32:39;;;;;;;19.67;17.98;;;;;;;;;;5127494;27;24470;-59
2021/10/09 00:35:04;;;;;;;19.97;18.37;;;;;;;;;;5126808;27;24594;-59
2021/10/09 00:37:30;;;;;;;20.03;18.43;;;;;;;;;;5126069;27;24626;-59
2021/10/09 00:39:55;;;;;;;19.52;17.95;;;;;;;;;;5127545;27;24432;-59
2021/10/09 00:42:20;;;;;;;22.77;20.87;;;;;;;;;;5126760;27;24426;-59
2021/10/09 00:44:45;;;;;;;19.73;18.10;;;;;;;;;;5127532;27;24508;-59
2021/10/09 00:47:10;;;;;;;19.77;18.17;;;;;;;;;;5127242;27;24416;-59
2021/10/09 00:49:36;;;;;;;19.40;17.90;;;;;;;;;;5127273;27;24949;-59
2021/10/09 00:52:05;;;;;;;20.67;19.07;;;;;;;;;;5110559;28;24424;-59
2021/10/09 00:54:31;;;;;;;21.27;19.48;;;;;;;;;;5117026;28;24413;-59
2021/10/09 00:56:57;;;;;;;20.70;19.10;;;;;;;;;;5126344;27;24416;-59
2021/10/09 00:59:25;;;;;;;21.40;19.60;;;;;;;;;;5127544;28;24474;-59
2021/10/09 01:01:51;;;;;;;21.30;19.60;;;;;;;;;;5121760;28;24447;-59
2021/10/09 01:04:17;;;;;;;19.90;18.20;;;;;;;;;;5126773;28;24479;-58
2021/10/09 01:06:42;;;;;;;20.73;19.02;;;;;;;;;;5126145;28;24409;-59
2021/10/09 01:09:07;;;;;;;19.40;17.90;;;;;;;;;;5126863;28;25026;-59
2021/10/09 01:11:32;;;;;;;19.37;17.87;;;;;;;;;;5125352;28;24545;-59
2021/10/09 01:13:58;;;;;;;20.07;18.47;;;;;;;;;;5126744;28;24424;-59
2021/10/09 01:16:24;;;;;;;20.15;18.48;;;;;;;;;;5125654;28;24413;-59
2021/10/09 01:18:53;;;;;;;20.80;19.13;;;;;;;;;;5122346;27;24841;-59
2021/10/09 01:21:19;;;;;;;21.70;19.80;;;;;;;;;;5120634;28;24421;-59
2021/10/09 01:23:44;;;;;;;20.50;18.80;;;;;;;;;;5127041;28;24447;-58
2021/10/09 01:26:10;;;;;;;18.60;17.10;;;;;;;;;;5125898;28;24413;-59
2021/10/09 01:28:36;;;;;;;20.33;18.67;;;;;;;;;;5125891;28;24528;-59
2021/10/09 01:31:02;;;;;;;21.80;19.90;;;;;;;;;;5126919;27;24413;-59
2021/10/09 01:33:27;;;;;;;22.27;20.47;;;;;;;;;;5112327;27;24435;-59
2021/10/09 01:35:53;;;;;;;22.03;20.23;;;;;;;;;;5128238;27;25239;-59
2021/10/09 01:38:19;;;;;;;18.63;17.13;;;;;;;;;;5121353;27;24822;-59
2021/10/09 01:40:45;;;;;;;19.30;17.80;;;;;;;;;;5129909;27;24417;-59
2021/10/09 01:43:11;;;;;;;19.80;18.25;;;;;;;;;;5129808;27;24433;-59
2021/10/09 01:45:38;;;;;;;19.25;17.70;;;;;;;;;;5130563;27;24511;-59
2021/10/09 01:48:03;;;;;;;18.70;17.20;;;;;;;;;;5122946;27;24427;-59
2021/10/09 01:50:28;;;;;;;19.33;17.73;;;;;;;;;;5130175;27;24527;-59
2021/10/09 01:52:53;;;;;;;19.35;17.77;;;;;;;;;;5128887;27;24907;-59
2021/10/09 01:55:18;;;;;;;18.80;17.30;;;;;;;;;;5130460;27;24540;-58
2021/10/09 01:57:43;;;;;;;20.83;19.03;;;;;;;;;;5129845;27;24425;-59
2021/10/09 02:00:09;;;;;;;18.67;17.27;;;;;;;;;;5130384;27;24424;-59
2021/10/09 02:02:34;;;;;;;18.40;16.90;;;;;;;;;;5129957;27;24429;-59
2021/10/09 02:04:59;;;;;;;18.60;17.10;;;;;;;;;;5129431;27;24450;-59
2021/10/09 02:07:25;;;;;;;19.90;18.33;;;;;;;;;;5123909;27;24741;-59
2021/10/09 02:09:51;;;;;;;20.40;18.75;;;;;;;;;;5130119;27;24501;-58
2021/10/09 02:12:16;;;;;;;21.00;19.30;;;;;;;;;;5129885;27;24960;-59
2021/10/09 02:14:47;;;;;;;21.33;19.53;;;;;;;;;;5129845;27;24420;-59
2021/10/09 02:17:33;;;;;;;22.33;20.33;;;;;;;;;;5128009;27;24545;-59
2021/10/09 02:24:13;;;;;;;21.48;19.75;;;;;;;;;;5129920;27;24417;-59
2021/10/09 02:25:49;;;;;;;20.10;18.40;;;;;;;;;;5126057;27;24420;-59
2021/10/09 02:28:20;;;;;;;18.52;17.13;;;;;;;;;;5129545;27;24524;-59
2021/10/09 02:30:46;;;;;;;20.15;18.55;;;;;;;;;;5129572;27;24469;-59
2021/10/09 02:33:11;;;;;;;22.07;20.27;;;;;;;;;;5125239;27;24464;-59
2021/10/09 02:35:37;;;;;;;20.58;18.88;;;;;;;;;;5116992;27;24441;-59
2021/10/09 02:38:02;;;;;;;23.10;21.20;;;;;;;;;;5124718;27;24460;-59
2021/10/09 02:40:27;;;;;;;21.80;20.00;;;;;;;;;;5116120;27;24850;-59
2021/10/09 02:42:53;;;;;;;21.47;19.67;;;;;;;;;;5127913;27;24423;-59
2021/10/09 02:45:18;;;;;;;22.35;20.38;;;;;;;;;;5129442;27;24532;-59
2021/10/09 02:47:43;;;;;;;19.87;18.27;;;;;;;;;;5128500;27;24764;-59
2021/10/09 02:50:13;;;;;;;22.80;20.90;;;;;;;;;;5126345;27;24515;-59
2021/10/09 02:52:38;;;;;;;21.70;19.92;;;;;;;;;;5125256;27;24559;-58
2021/10/09 02:55:04;;;;;;;22.00;20.10;;;;;;;;;;5128877;27;24512;-59
2021/10/09 02:57:29;;;;;;;24.97;22.80;;;;;;;;;;5127321;27;24458;-58
2021/10/09 02:59:54;;;;;;;21.50;19.70;;;;;;;;;;5128949;27;24542;-59
2021/10/09 03:02:19;;;;;;;21.17;19.37;;;;;;;;;;5125187;27;24994;-59
2021/10/09 03:04:44;;;;;;;23.95;21.85;;;;;;;;;;5129177;27;24549;-59
2021/10/09 03:07:09;;;;;;;24.05;22.05;;;;;;;;;;5128599;27;24412;-59
2021/10/09 03:09:35;;;;;;;23.85;21.85;;;;;;;;;;5129288;27;24958;-60
2021/10/09 03:12:00;;;;;;;22.45;20.55;;;;;;;;;;5121640;27;24456;-59
2021/10/09 03:14:25;;;;;;;21.77;19.92;;;;;;;;;;5129110;27;24417;-59
2021/10/09 03:16:51;;;;;;;22.87;20.93;;;;;;;;;;5128512;27;24765;-59
2021/10/09 03:19:16;;;;;;;24.40;22.38;;;;;;;;;;5118342;27;24424;-58
2021/10/09 03:21:41;;;;;;;25.33;23.23;;;;;;;;;;5116475;27;24468;-59
2021/10/09 03:24:06;;;;;;;23.45;21.35;;;;;;;;;;5125809;27;25103;-58
2021/10/09 03:26:32;;;;;;;23.70;21.60;;;;;;;;;;5128234;27;24413;-59
2021/10/09 03:28:57;;;;;;;26.48;24.17;;;;;;;;;;5128010;27;24434;-58
2021/10/09 03:31:22;;;;;;;26.13;23.92;;;;;;;;;;5129063;27;24489;-59
2021/10/09 03:33:47;;;;;;;23.13;21.13;;;;;;;;;;5127899;27;24765;-59
2021/10/09 03:36:12;;;;;;;22.30;20.30;;;;;;;;;;5126730;27;24445;-59
2021/10/09 03:38:38;;;;;;;23.10;21.20;;;;;;;;;;5127687;27;24456;-59
2021/10/09 03:41:11;;;;;;;21.33;19.63;;;;;;;;;;5114133;27;24494;-59
2021/10/09 03:43:37;;;;;;;20.42;18.83;;;;;;;;;;5123159;27;24441;-59
2021/10/09 03:53:33;;;;;;;21.63;19.83;;;;;;;;;;5120565;27;24444;-59
2021/10/09 03:55:58;;;;;;;19.95;18.45;;;;;;;;;;5118392;27;24965;-59
2021/10/09 03:58:24;;;;;;;19.95;18.35;;;;;;;;;;5125998;27;24489;-59
2021/10/09 04:00:49;;;;;;;25.37;23.27;;;;;;;;;;5127496;27;25014;-59
2021/10/09 04:03:14;;;;;;;23.90;21.90;;;;;;;;;;5124809;27;24513;-59
2021/10/09 04:05:39;;;;;;;20.63;18.92;;;;;;;;;;5124327;27;24587;-58
2021/10/09 04:08:05;;;;;;;23.77;21.75;;;;;;;;;;5127122;27;24567;-58
2021/10/09 04:10:30;;;;;;;23.60;21.60;;;;;;;;;;5127127;27;24412;-59
2021/10/09 04:12:55;;;;;;;21.90;20.10;;;;;;;;;;5127238;27;24548;-59
2021/10/09 04:15:20;;;;;;;20.55;18.75;;;;;;;;;;5127829;27;24474;-59
2021/10/09 04:17:46;;;;;;;19.80;18.10;;;;;;;;;;5127380;27;24409;-59
2021/10/09 04:20:11;;;;;;;19.37;17.83;;;;;;;;;;5119084;27;24513;-59
2021/10/09 04:22:36;;;;;;;19.03;17.43;;;;;;;;;;5127463;27;24429;-59
2021/10/09 04:25:01;;;;;;;19.90;18.30;;;;;;;;;;5127932;27;24948;-59
2021/10/09 04:27:27;;;;;;;21.17;19.47;;;;;;;;;;5115457;27;24498;-59
2021/10/09 04:29:52;;;;;;;22.80;20.80;;;;;;;;;;5126262;27;24772;-59
2021/10/09 04:32:17;;;;;;;22.35;20.35;;;;;;;;;;5127279;27;24536;-59
2021/10/09 04:34:42;;;;;;;21.67;19.88;;;;;;;;;;5126753;27;25143;-59
2021/10/09 04:37:07;;;;;;;20.40;18.70;;;;;;;;;;5118709;27;24434;-59
2021/10/09 04:39:32;;;;;;;21.02;19.23;;;;;;;;;;5127210;27;24413;-59
2021/10/09 04:41:58;;;;;;;21.40;19.60;;;;;;;;;;5122706;27;24952;-59
2021/10/09 04:44:23;;;;;;;25.50;23.40;;;;;;;;;;5126463;27;24463;-59
2021/10/09 04:46:48;;;;;;;26.37;24.13;;;;;;;;;;5123938;27;24479;-59
2021/10/09 04:49:13;;;;;;;22.43;20.57;;;;;;;;;;5126796;27;25157;-59
2021/10/09 04:51:38;;;;;;;21.90;20.10;;;;;;;;;;5126940;27;24409;-59
2021/10/09 04:54:04;;;;;;;21.57;19.87;;;;;;;;;;5126871;28;24484;-59
2021/10/09 04:56:29;;;;;;;21.30;19.40;;;;;;;;;;5126890;27;24417;-58
2021/10/09 04:58:54;;;;;;;21.57;19.67;;;;;;;;;;5124116;28;24558;-59
2021/10/09 05:01:19;;;;;;;21.92;20.13;;;;;;;;;;5127183;28;24672;-59
2021/10/09 05:03:44;;;;;;;19.15;17.55;;;;;;;;;;5126631;28;24536;-59
2021/10/09 05:06:09;;;;;;;21.80;19.90;;;;;;;;;;5127009;27;24929;-59
2021/10/09 05:08:35;;;;;;;21.95;20.05;;;;;;;;;;5131006;27;24457;-59
2021/10/09 05:11:01;;;;;;;20.60;18.90;;;;;;;;;;5128636;27;24443;-58
2021/10/09 05:13:27;;;;;;;21.20;19.40;;;;;;;;;;5130852;27;24493;-59
2021/10/09 05:15:52;;;;;;;20.83;19.13;;;;;;;;;;5130217;27;24870;-59
2021/10/09 05:18:17;;;;;;;20.30;18.60;;;;;;;;;;5123086;27;24480;-59
2021/10/09 05:20:42;;;;;;;20.57;18.77;;;;;;;;;;5127919;27;25100;-59
2021/10/09 05:23:07;;;;;;;21.17;19.37;;;;;;;;;;5128874;27;24432;-58
2021/10/09 05:25:34;;;;;;;20.57;18.87;;;;;;;;;;5131028;27;24834;-59
2021/10/09 05:28:13;;;;;;;26.97;24.57;;;;;;;;;;5131111;27;24575;-58
2021/10/09 05:30:45;;;;;;;25.02;22.92;;;;;;;;;;5122428;27;24413;-59
2021/10/09 05:35:45;;;;;;;23.10;21.10;;;;;;;;;;5127690;27;24582;-59
2021/10/09 05:38:10;;;;;;;23.07;20.97;;;;;;;;;;5125472;27;24591;-59
2021/10/09 05:40:35;;;;;;;24.80;22.70;;;;;;;;;;5124625;27;24944;-59
2021/10/09 05:43:01;;;;;;;23.53;21.60;;;;;;;;;;5124422;27;24581;-59
2021/10/09 05:45:26;;;;;;;19.07;17.47;;;;;;;;;;5122948;27;24424;-59
2021/10/09 05:47:52;;;;;;;22.30;20.30;;;;;;;;;;5121291;27;24420;-59
2021/10/09 05:50:18;;;;;;;23.25;21.20;;;;;;;;;;5122065;27;24895;-59
2021/10/09 05:52:53;;;;;;;19.38;17.77;;;;;;;;;;5120066;27;25018;-59
2021/10/09 05:55:22;;;;;;;21.15;19.35;;;;;;;;;;5126166;27;25085;-59
2021/10/09 06:01:02;;;;;;;24.92;22.73;;;;;;;;;;5122359;27;24404;-59
2021/10/09 06:31:20;;;;;;;26.60;24.20;;;;;;;;;;5124665;27;24420;-59
2021/10/09 06:48:07;;;;;;;19.83;18.13;;;;;;;;;;5128545;27;24426;-59
2021/10/09 07:01:00;;;;;;;20.02;18.42;;;;;;;;;;5125000;27;24447;-59
2021/10/09 07:03:25;;;;;;;19.00;17.40;;;;;;;;;;5122202;27;24475;-61
2021/10/09 07:05:51;;;;;;;19.90;18.23;;;;;;;;;;5128637;27;24406;-61
2021/10/09 07:08:16;;;;;;;22.73;20.83;;;;;;;;;;5124741;27;24409;-61
2021/10/09 07:10:45;;;;;;;23.40;21.40;;;;;;;;;;5124947;27;24869;-61
2021/10/09 07:13:10;;;;;;;24.47;22.47;;;;;;;;;;5128212;27;24431;-59
2021/10/09 07:15:35;;;;;;;26.30;24.00;;;;;;;;;;5127103;27;24421;-59
2021/10/09 07:18:01;;;;;;;20.20;18.50;;;;;;;;;;5126110;27;24629;-59
2021/10/09 07:20:26;;;;;;;24.03;21.93;;;;;;;;;;5121948;27;24435;-59
2021/10/09 07:22:51;;;;;;;19.58;17.95;;;;;;;;;;5119723;27;24439;-60
2021/10/09 07:25:17;;;;;;;19.52;17.83;;;;;;;;;;5116875;27;24523;-59
2021/10/09 07:27:42;;;;;;;19.77;18.08;;;;;;;;;;5120872;27;24942;-59
2021/10/09 07:30:08;;;;;;;17.50;15.90;;;;;;;;;;5121176;27;24510;-59
2021/10/09 07:32:33;;;;;;;17.00;15.60;;;;;;;;;;5124510;27;24454;-59
2021/10/09 07:34:58;;;;;;;17.70;16.23;;;;;;;;;;5122429;27;24540;-59
2021/10/09 07:37:23;;;;;;;17.42;15.95;;;;;;;;;;5122672;27;24413;-59
2021/10/09 07:39:49;;;;;;;20.15;18.55;;;;;;;;;;5118467;27;24424;-59
2021/10/09 07:42:14;;;;;;;17.58;16.17;;;;;;;;;;5121946;27;25024;-59
2021/10/09 07:44:39;;;;;;;19.40;17.70;;;;;;;;;;5123617;27;24445;-59
2021/10/09 07:47:06;;;;;;;21.58;19.75;;;;;;;;;;5122211;27;24933;-59
2021/10/09 07:49:32;;;;;;;23.77;21.58;;;;;;;;;;5123416;27;24456;-59
2021/10/09 07:51:57;;;;;;;21.80;19.90;;;;;;;;;;5122665;27;24429;-60
2021/10/09 07:54:22;;;;;;;20.47;18.77;;;;;;;;;;5120699;27;24936;-60
2021/10/09 07:56:47;;;;;;;22.15;20.27;;;;;;;;;;5120797;27;24450;-60
2021/10/09 07:59:12;;;;;;;21.30;19.50;;;;;;;;;;5122393;27;24812;-59
2021/10/09 08:01:37;;;;;;;20.88;19.08;;;;;;;;;;5118512;27;24457;-60
2021/10/09 08:04:03;;;;;;;17.95;16.48;;;;;;;;;;5118714;27;24429;-60
2021/10/09 08:06:28;;;;;;;18.60;17.10;;;;;;;;;;5122201;27;24769;-60
2021/10/09 08:08:53;;;;;;;19.48;17.88;;;;;;;;;;5117982;27;24497;-60
2021/10/09 08:11:18;;;;;;;20.60;18.80;;;;;;;;;;5121751;27;24505;-60
2021/10/09 08:13:43;;;;;;;18.27;16.88;;;;;;;;;;5123554;27;24420;-61
2021/10/09 08:16:09;;;;;;;17.97;16.50;;;;;;;;;;5121489;27;24501;-60
2021/10/09 08:18:34;;;;;;;22.60;20.80;;;;;;;;;;5123706;27;24508;-60
2021/10/09 08:21:04;;;;;;;19.30;17.60;;;;;;;;;;5118137;27;24421;-60
2021/10/09 08:23:35;;;;;;;17.20;15.80;;;;;;;;;;5121631;27;25165;-61
2021/10/09 08:39:11;;;;;;;18.63;17.13;;;;;;;;;;5122863;27;24447;-60
2021/10/09 08:41:37;;;;;;;21.33;19.63;;;;;;;;;;5122952;27;24448;-61
2021/10/09 08:44:02;;;;;;;16.88;15.48;;;;;;;;;;5117456;27;24907;-60
2021/10/09 08:46:27;;;;;;;17.52;16.02;;;;;;;;;;5120995;27;25026;-60
2021/10/09 08:48:52;;;;;;;20.48;18.73;;;;;;;;;;5121046;27;24388;-61
2021/10/09 08:51:18;;;;;;;26.17;23.83;;;;;;;;;;5120474;27;24423;-60
2021/10/09 08:53:44;;;;;;;22.55;20.65;;;;;;;;;;5122518;27;25000;-60
2021/10/09 08:56:10;;;;;;;18.53;16.93;;;;;;;;;;5118715;28;24641;-59
2021/10/09 08:58:37;;;;;;;27.38;24.88;;;;;;;;;;5122468;28;24413;-60
2021/10/09 09:03:54;;;;;;;19.13;17.63;;;;;;;;;;5122597;28;24440;-59
2021/10/09 09:06:37;;;;;;;23.05;21.05;;;;;;;;;;5120745;28;24431;-60
2021/10/09 09:25:55;;;;;;;17.75;16.25;;;;;;;;;;5116347;28;24409;-61
2021/10/09 09:34:02;;;;;;;16.33;15.02;;;;;;;;;;5119202;28;25012;-60
2021/10/09 09:39:09;;;;;;;18.92;17.02;;;;;;;;;;5119765;28;24413;-61
2021/10/09 09:41:42;;;;;;;15.40;14.00;;;;;;;;;;5110901;28;24416;-60
2021/10/09 09:44:09;;;;;;;14.75;13.40;;;;;;;;;;5120183;27;24432;-60
2021/10/09 09:46:34;;;;;;;14.20;12.90;;;;;;;;;;5120749;28;24405;-59
2021/10/09 09:49:00;;;;;;;14.63;13.23;;;;;;;;;;5120161;28;24830;-60
2021/10/09 09:51:25;;;;;;;14.13;12.83;;;;;;;;;;5120371;28;24417;-59
2021/10/09 09:53:51;;;;;;;14.03;12.73;;;;;;;;;;5125385;27;24483;-60
2021/10/09 09:56:16;;;;;;;14.00;12.70;;;;;;;;;;5124915;27;24773;-59
2021/10/09 09:58:43;;;;;;;15.20;13.80;;;;;;;;;;5122876;27;24902;-59
2021/10/09 10:01:09;;;;;;;14.60;13.20;;;;;;;;;;5125533;27;24496;-59
2021/10/09 10:03:35;;;;;;;15.40;13.48;;;;;;;;;;5125865;27;24467;-59
2021/10/09 10:06:04;;;;;;;13.70;12.30;;;;;;;;;;5122816;27;25141;-59
2021/10/09 10:08:29;;;;;;;12.25;11.15;;;;;;;;;;5121907;27;25000;-59
2021/10/09 10:10:57;;;;;;;14.57;13.10;;;;;;;;;;5124405;27;24508;-60
2021/10/09 10:13:24;;;;;;;15.20;13.63;;;;;;;;;;5126602;27;24462;-60
2021/10/09 10:15:53;;;;;;;12.32;11.13;;;;;;;;;;5124507;27;24421;-60
2021/10/09 10:18:36;;;;;;;13.68;11.90;;;;;;;;;;5119061;27;24449;-60
2021/10/09 10:21:02;;;;;;;13.55;11.07;;;;;;;;;;5119914;27;24463;-60
2021/10/09 10:23:31;;;;;;;12.10;10.90;;;;;;;;;;5124950;27;24509;-60
2021/10/09 10:26:16;;;;;;;12.32;11.10;;;;;;;;;;5122557;27;24454;-60
2021/10/09 10:28:41;;;;;;;12.82;11.52;;;;;;;;;;5106677;27;24532;-60
2021/10/09 10:31:06;;;;;;;11.70;10.60;;;;;;;;;;5119680;27;24854;-60
2021/10/09 10:33:41;;;;;;;10.90;9.80;;;;;;;;;;5121520;27;24413;-60
2021/10/09 10:36:08;;;;;;;11.15;10.02;;;;;;;;;;5122763;27;24445;-60
2021/10/09 10:38:35;;;;;;;11.40;10.30;;;;;;;;;;5125127;27;25014;-59
2021/10/09 10:41:03;;;;;;;11.60;10.40;;;;;;;;;;5123012;27;24428;-60
2021/10/09 10:43:33;;;;;;;11.90;10.70;;;;;;;;;;5120824;27;24429;-61
2021/10/09 10:46:01;;;;;;;10.02;9.02;;;;;;;;;;5118784;27;24440;-60
2021/10/09 10:48:46;;;;;;;10.13;9.13;;;;;;;;;;5124996;27;24444;-59
2021/10/09 10:51:30;;;;;;;9.70;8.70;;;;;;;;;;5119214;27;24421;-60
2021/10/09 10:54:14;;;;;;;9.10;8.30;;;;;;;;;;5124408;27;24409;-60
2021/10/09 10:59:25;;;;;;;8.30;7.32;;;;;;;;;;5122392;27;24413;-58
2021/10/09 11:02:06;;;;;;;7.53;6.82;;;;;;;;;;5122697;27;24451;-57
2021/10/09 11:04:34;;;;;;;7.43;6.60;;;;;;;;;;5119738;27;24459;-59
2021/10/09 11:07:00;;;;;;;8.48;6.88;;;;;;;;;;5124242;27;24971;-58
2021/10/09 11:09:25;;;;;;;7.30;6.60;;;;;;;;;;5123809;27;24421;-58
2021/10/09 11:11:50;;;;;;;8.07;6.63;;;;;;;;;;5124099;27;24413;-58
2021/10/09 11:14:22;;;;;;;6.70;6.10;;;;;;;;;;5120475;27;24469;-58
2021/10/09 11:16:47;;;;;;;7.07;6.38;;;;;;;;;;5122275;27;24411;-58
2021/10/09 11:19:12;;;;;;;7.10;6.40;;;;;;;;;;5120734;27;24541;-58
2021/10/09 11:21:53;;;;;;;7.35;5.93;;;;;;;;;;5120742;27;24413;-58
2021/10/09 11:24:19;;;;;;;6.47;5.87;;;;;;;;;;5121452;27;24798;-60
2021/10/09 11:26:54;;;;;;;7.00;6.30;;;;;;;;;;5123802;27;24417;-58
2021/10/09 11:29:19;;;;;;;7.50;6.70;;;;;;;;;;5122333;27;24742;-59
2021/10/09 11:31:44;;;;;;;7.28;6.15;;;;;;;;;;5120982;27;24756;-60
2021/10/09 11:34:10;;;;;;;7.17;6.00;;;;;;;;;;5121598;27;24620;-59
2021/10/09 11:36:38;;;;;;;6.67;5.93;;;;;;;;;;5119936;27;24414;-58
2021/10/09 11:39:08;;;;;;;6.47;5.88;;;;;;;;;;5122211;27;24427;-58
2021/10/09 11:41:33;;;;;;;6.70;6.03;;;;;;;;;;5127526;27;24466;-58
2021/10/09 11:44:03;;;;;;;7.30;6.40;;;;;;;;;;5120544;27;24460;-58
2021/10/09 11:55:12;;;;;;;5.63;5.13;;;;;;;;;;5121739;27;24517;-58
2021/10/09 11:57:38;;;;;;;7.00;6.30;;;;;;;;;;5127403;27;24460;-58
2021/10/09 12:00:23;;;;;;;8.48;6.65;;;;;;;;;;5123873;27;24988;-58
2021/10/09 12:02:48;;;;;;;6.13;5.60;;;;;;;;;;5121179;27;25029;-58
2021/10/09 12:05:13;;;;;;;6.70;5.78;;;;;;;;;;5126144;27;25005;-59
2021/10/09 12:07:38;;;;;;;7.78;6.70;;;;;;;;;;5127437;27;24460;-58
2021/10/09 12:10:11;;;;;;;8.00;6.57;;;;;;;;;;5126592;27;24816;-58
2021/10/09 12:12:37;;;;;;;7.00;6.20;;;;;;;;;;5127285;27;24406;-58
2021/10/09 12:15:02;;;;;;;6.80;6.10;;;;;;;;;;5126716;27;24420;-58
2021/10/09 12:17:37;;;;;;;6.93;6.30;;;;;;;;;;5127542;27;24520;-59
2021/10/09 12:20:06;;;;;;;7.55;6.75;;;;;;;;;;5126294;27;24433;-58
2021/10/09 12:22:42;;;;;;;6.95;6.32;;;;;;;;;;5125473;27;24413;-58
2021/10/09 12:25:16;;;;;;;5.88;5.32;;;;;;;;;;5126263;27;24449;-58
2021/10/09 12:27:42;;;;;;;6.70;6.00;;;;;;;;;;5119268;27;24428;-58
2021/10/09 12:30:12;;;;;;;7.20;5.15;;;;;;;;;;5126402;27;24405;-59
2021/10/09 12:32:45;;;;;;;6.05;5.45;;;;;;;;;;5121819;27;24448;-58
2021/10/09 12:35:19;;;;;;;6.00;5.40;;;;;;;;;;5124145;27;24436;-58
2021/10/09 12:37:54;;;;;;;7.00;6.28;;;;;;;;;;5127458;27;24461;-58
2021/10/09 12:40:20;;;;;;;6.00;5.40;;;;;;;;;;5124045;27;24474;-58
2021/10/09 12:42:47;;;;;;;7.23;5.13;;;;;;;;;;5122843;27;24489;-58
2021/10/09 12:45:12;;;;;;;7.10;5.20;;;;;;;;;;5126076;27;24405;-58
2021/10/09 12:47:37;;;;;;;5.87;4.60;;;;;;;;;;5121299;27;24819;-57
2021/10/09 12:50:03;;;;;;;6.00;5.30;;;;;;;;;;5120311;27;24422;-60
2021/10/09 12:52:28;;;;;;;6.55;5.47;;;;;;;;;;5115190;27;24504;-58
2021/10/09 12:54:54;;;;;;;5.70;4.70;;;;;;;;;;5123238;27;24803;-59
2021/10/09 12:57:19;;;;;;;5.97;4.83;;;;;;;;;;5118557;28;24496;-58
2021/10/09 12:59:44;;;;;;;5.30;4.80;;;;;;;;;;5117112;28;24412;-58
2021/10/09 13:02:09;;;;;;;5.87;5.27;;;;;;;;;;5122606;28;25040;-58
2021/10/09 13:04:34;;;;;;;5.43;4.93;;;;;;;;;;5122821;28;24421;-58
2021/10/09 13:07:00;;;;;;;7.17;5.13;;;;;;;;;;5120982;28;24532;-59
2021/10/09 13:09:25;;;;;;;5.60;5.00;;;;;;;;;;5119536;28;24450;-58
2021/10/09 13:11:56;;;;;;;4.93;4.53;;;;;;;;;;5118272;28;24462;-59
2021/10/09 13:14:21;;;;;;;6.57;5.15;;;;;;;;;;5120475;28;24688;-59
2021/10/09 13:16:47;;;;;;;5.60;5.10;;;;;;;;;;5120880;28;24466;-59
2021/10/09 13:19:12;;;;;;;5.60;5.10;;;;;;;;;;5122370;28;24474;-58
2021/10/09 13:21:37;;;;;;;5.40;4.90;;;;;;;;;;5120251;28;24421;-59
2021/10/09 13:24:03;;;;;;;5.50;5.00;;;;;;;;;;5116573;28;24416;-59
2021/10/09 13:26:28;;;;;;;5.17;4.67;;;;;;;;;;5116166;27;24758;-59
2021/10/09 13:28:53;;;;;;;7.20;5.00;;;;;;;;;;5122978;27;24409;-59
2021/10/09 13:31:18;;;;;;;5.80;5.27;;;;;;;;;;5126926;27;24475;-59
2021/10/09 13:33:43;;;;;;;6.40;4.80;;;;;;;;;;5126176;27;24452;-59
2021/10/09 13:36:08;;;;;;;4.80;4.40;;;;;;;;;;5121763;27;24528;-59
2021/10/09 13:38:34;;;;;;;5.35;4.85;;;;;;;;;;5120988;27;24440;-59
2021/10/09 13:41:00;;;;;;;5.30;4.80;;;;;;;;;;5120731;27;24424;-60
2021/10/09 13:43:25;;;;;;;6.60;5.00;;;;;;;;;;5126920;27;24477;-59
2021/10/09 13:45:50;;;;;;;5.57;5.07;;;;;;;;;;5124556;27;24420;-60
2021/10/09 13:48:16;;;;;;;5.90;5.03;;;;;;;;;;5126999;27;24459;-59
2021/10/09 13:50:45;;;;;;;7.15;5.90;;;;;;;;;;5124645;27;24485;-59
2021/10/09 13:53:12;;;;;;;6.45;5.85;;;;;;;;;;5122773;27;24454;-58
2021/10/09 13:55:37;;;;;;;6.00;5.40;;;;;;;;;;5121202;27;24928;-59
2021/10/09 13:58:03;;;;;;;5.90;5.30;;;;;;;;;;5125889;27;24477;-59
2021/10/09 14:00:28;;;;;;;7.07;5.60;;;;;;;;;;5122113;27;25281;-59
2021/10/09 14:02:53;;;;;;;6.03;5.30;;;;;;;;;;5117341;27;25017;-59
2021/10/09 14:05:18;;;;;;;9.30;5.80;;;;;;;;;;5123616;27;24489;-58
2021/10/09 14:07:43;;;;;;;6.40;5.80;;;;;;;;;;5116756;27;24467;-58
2021/10/09 14:10:09;;;;;;;6.47;5.80;;;;;;;;;;5118838;27;24409;-58
2021/10/09 14:12:35;;;;;;;6.60;5.70;;;;;;;;;;5126482;27;24550;-59
2021/10/09 14:15:03;;;;;;;6.97;6.37;;;;;;;;;;5124506;27;24509;-59
2021/10/09 14:17:31;;;;;;;9.47;6.60;;;;;;;;;;5120672;27;24401;-58
2021/10/09 14:19:56;;;;;;;6.80;6.10;;;;;;;;;;5121917;27;24397;-58
2021/10/09 14:22:22;;;;;;;7.20;6.50;;;;;;;;;;5124524;27;24393;-58
2021/10/09 14:24:48;;;;;;;6.70;6.10;;;;;;;;;;5125046;27;24429;-58
2021/10/09 14:27:13;;;;;;;6.23;5.63;;;;;;;;;;5124310;27;24756;-60
2021/10/09 14:29:38;;;;;;;8.13;6.22;;;;;;;;;;5126248;27;24753;-58
2021/10/09 14:32:03;;;;;;;6.80;6.13;;;;;;;;;;5122310;27;24925;-57
2021/10/09 14:34:28;;;;;;;7.27;6.37;;;;;;;;;;5118360;27;24553;-60
2021/10/09 14:36:53;;;;;;;7.45;6.05;;;;;;;;;;5119211;27;24959;-58
2021/10/09 14:39:19;;;;;;;7.23;6.53;;;;;;;;;;5123693;27;25016;-59
2021/10/09 14:41:44;;;;;;;8.68;6.30;;;;;;;;;;5122858;27;24490;-58
2021/10/09 14:44:09;;;;;;;7.93;6.03;;;;;;;;;;5121615;27;24429;-59
2021/10/09 14:47:15;;;;;;;6.80;6.10;;;;;;;;;;5117997;27;24978;-58
2021/10/09 15:17:04;;;;;;;7.90;6.30;;;;;;;;;;5122653;27;24381;-58
2021/10/09 15:19:29;;;;;;;8.35;6.00;;;;;;;;;;5124121;27;24413;-59
2021/10/09 15:21:54;;;;;;;7.10;6.40;;;;;;;;;;5122173;27;24466;-59
2021/10/09 15:24:19;;;;;;;6.40;5.80;;;;;;;;;;5123361;27;24432;-59
2021/10/09 15:26:44;;;;;;;7.17;6.07;;;;;;;;;;5121133;27;24397;-59
2021/10/09 15:29:10;;;;;;;8.10;6.30;;;;;;;;;;5124335;27;24968;-59
2021/10/09 15:31:35;;;;;;;6.73;6.07;;;;;;;;;;5124831;27;24956;-58
2021/10/09 15:34:00;;;;;;;6.47;5.88;;;;;;;;;;5122561;27;24393;-59
2021/10/09 15:36:25;;;;;;;6.97;6.30;;;;;;;;;;5119236;27;24409;-59
2021/10/09 15:38:50;;;;;;;7.70;6.60;;;;;;;;;;5120764;27;25190;-59
2021/10/09 15:41:16;;;;;;;6.60;5.90;;;;;;;;;;5120134;27;24960;-59
2021/10/09 15:43:41;;;;;;;6.60;5.93;;;;;;;;;;5124322;27;24503;-59
2021/10/09 15:46:06;;;;;;;7.47;6.47;;;;;;;;;;5122658;27;24496;-58
2021/10/09 15:48:32;;;;;;;7.80;7.00;;;;;;;;;;5120679;27;24936;-57
2021/10/09 15:50:57;;;;;;;7.60;6.90;;;;;;;;;;5119701;27;24443;-58
2021/10/09 15:53:22;;;;;;;7.30;6.60;;;;;;;;;;5120737;27;24492;-58
2021/10/09 15:55:48;;;;;;;7.00;6.40;;;;;;;;;;5122371;27;24424;-57
2021/10/09 15:58:13;;;;;;;7.53;6.30;;;;;;;;;;5124235;27;24440;-57
2021/10/09 16:00:38;;;;;;;8.60;7.30;;;;;;;;;;5120327;27;24392;-58
2021/10/09 16:03:03;;;;;;;7.10;6.50;;;;;;;;;;5118073;27;25662;-58
2021/10/09 16:05:28;;;;;;;8.10;6.90;;;;;;;;;;5118347;27;24402;-58
2021/10/09 16:07:53;;;;;;;8.25;7.45;;;;;;;;;;5118520;27;24402;-58
2021/10/09 16:10:19;;;;;;;8.23;7.50;;;;;;;;;;5123863;27;25106;-58
2021/10/09 16:12:44;;;;;;;7.80;7.10;;;;;;;;;;5123292;27;24444;-58
2021/10/09 16:15:09;;;;;;;7.87;6.90;;;;;;;;;;5121819;27;24784;-58
2021/10/09 16:17:35;;;;;;;8.73;6.80;;;;;;;;;;5123867;27;24397;-58
2021/10/09 16:20:00;;;;;;;7.55;6.75;;;;;;;;;;5118158;27;24952;-59
2021/10/09 16:22:26;;;;;;;8.13;7.37;;;;;;;;;;5121196;27;24548;-58
2021/10/09 16:24:51;;;;;;;8.40;6.70;;;;;;;;;;5122034;27;24417;-60
2021/10/09 16:27:17;;;;;;;7.30;6.70;;;;;;;;;;5123629;27;24942;-60
2021/10/09 16:29:42;;;;;;;9.70;8.80;;;;;;;;;;5121604;27;25005;-59
2021/10/09 16:32:07;;;;;;;11.05;9.95;;;;;;;;;;5117391;27;24800;-60
2021/10/09 16:34:32;;;;;;;9.60;8.60;;;;;;;;;;5119372;27;24542;-59
2021/10/09 16:36:58;;;;;;;9.33;8.43;;;;;;;;;;5123557;27;24434;-59
2021/10/09 16:39:24;;;;;;;7.90;7.10;;;;;;;;;;5123230;27;24401;-58
2021/10/09 16:41:50;;;;;;;8.82;7.50;;;;;;;;;;5121607;27;24393;-58
2021/10/09 16:44:15;;;;;;;8.98;8.13;;;;;;;;;;5121205;27;24440;-59
2021/10/09 16:46:41;;;;;;;9.00;8.20;;;;;;;;;;5119782;27;24382;-59
2021/10/09 16:49:06;;;;;;;7.50;6.80;;;;;;;;;;5117438;27;24488;-58
2021/10/09 16:51:33;;;;;;;8.00;7.23;;;;;;;;;;5121905;27;24377;-59